sensor_id;sensor_type;location;lat;lon;timestamp;temperature;humidity
25208;DHT22;13153;52.316;21.166;2023-07-24T00:02:05;21.10;99.90
25208;DHT22;13153;52.316;21.166;2023-07-24T00:04:32;21.00;99.90
25208;DHT22;13153;52.316;21.166;2023-07-24T00:06:58;21.10;99.90
25208;DHT22;13153;52.316;21.166;2023-07-24T00:09:24;21.10;99.90
25208;DHT22;13153;52.316;21.166;2023-07-24T00:11:50;21.00;99.90
25208;DHT22;13153;52.316;21.166;2023-07-24T00:14:16;20.90;99.90
25208;DHT22;13153;52.316;21.166;2023-07-24T00:16:42;20.90;99.90
25208;DHT22;13153;52.316;21.166;2023-07-24T00:19:07;20.90;99.90
25208;DHT22;13153;52.316;21.166;2023-07-24T00:21:33;20.90;99.90
25208;DHT22;13153;52.316;21.166;2023-07-24T00:23:59;20.90;99.90
25208;DHT22;13153;52.316;21.166;2023-07-24T00:26:25;20.90;99.90
25208;DHT22;13153;52.316;21.166;2023-07-24T00:28:50;20.90;99.90
25208;DHT22;13153;52.316;21.166;2023-07-24T00:31:16;20.90;99.90
25208;DHT22;13153;52.316;21.166;2023-07-24T00:33:42;20.90;99.90
25208;DHT22;13153;52.316;21.166;2023-07-24T00:36:08;20.90;99.90
25208;DHT22;13153;52.316;21.166;2023-07-24T00:38:33;20.90;99.90
25208;DHT22;13153;52.316;21.166;2023-07-24T00:40:59;21.00;99.90
25208;DHT22;13153;52.316;21.166;2023-07-24T00:43:25;20.90;99.90
25208;DHT22;13153;52.316;21.166;2023-07-24T00:45:51;20.90;99.90
25208;DHT22;13153;52.316;21.166;2023-07-24T00:48:17;20.90;99.90
25208;DHT22;13153;52.316;21.166;2023-07-24T00:50:43;20.90;99.90
25208;DHT22;13153;52.316;21.166;2023-07-24T00:53:15;20.90;99.90
25208;DHT22;13153;52.316;21.166;2023-07-24T00:55:43;20.90;99.90
25208;DHT22;13153;52.316;21.166;2023-07-24T00:58:11;21.00;99.90
25208;DHT22;13153;52.316;21.166;2023-07-24T01:00:40;21.00;99.90
25208;DHT22;13153;52.316;21.166;2023-07-24T01:03:06;21.00;99.90
25208;DHT22;13153;52.316;21.166;2023-07-24T01:05:32;21.00;99.90
25208;DHT22;13153;52.316;21.166;2023-07-24T01:07:58;21.00;99.90
25208;DHT22;13153;52.316;21.166;2023-07-24T01:10:24;21.00;99.90
25208;DHT22;13153;52.316;21.166;2023-07-24T01:13:04;21.00;99.90
25208;DHT22;13153;52.316;21.166;2023-07-24T01:15:45;21.00;99.90
25208;DHT22;13153;52.316;21.166;2023-07-24T01:18:17;20.90;99.90
25208;DHT22;13153;52.316;21.166;2023-07-24T01:20:48;20.90;99.90
25208;DHT22;13153;52.316;21.166;2023-07-24T01:26:13;20.90;99.90
25208;DHT22;13153;52.316;21.166;2023-07-24T01:28:40;20.90;99.90
25208;DHT22;13153;52.316;21.166;2023-07-24T01:31:06;20.90;99.90
25208;DHT22;13153;52.316;21.166;2023-07-24T01:33:31;20.90;99.90
25208;DHT22;13153;52.316;21.166;2023-07-24T01:36:01;20.90;99.90
25208;DHT22;13153;52.316;21.166;2023-07-24T01:38:31;20.90;99.90
25208;DHT22;13153;52.316;21.166;2023-07-24T01:40:59;20.90;99.90
25208;DHT22;13153;52.316;21.166;2023-07-24T01:43:26;21.00;99.90
25208;DHT22;13153;52.316;21.166;2023-07-24T01:45:53;21.00;99.90
25208;DHT22;13153;52.316;21.166;2023-07-24T01:48:18;21.00;99.90
25208;DHT22;13153;52.316;21.166;2023-07-24T01:50:44;21.00;99.90
25208;DHT22;13153;52.316;21.166;2023-07-24T01:53:10;21.00;99.90
25208;DHT22;13153;52.316;21.166;2023-07-24T01:55:36;21.00;99.90
25208;DHT22;13153;52.316;21.166;2023-07-24T01:58:01;21.00;99.90
25208;DHT22;13153;52.316;21.166;2023-07-24T02:00:27;21.10;99.90
25208;DHT22;13153;52.316;21.166;2023-07-24T02:02:53;21.10;99.90
25208;DHT22;13153;52.316;21.166;2023-07-24T02:05:19;21.10;99.90
25208;DHT22;13153;52.316;21.166;2023-07-24T02:07:44;21.10;99.90
25208;DHT22;13153;52.316;21.166;2023-07-24T02:10:10;21.20;99.90
25208;DHT22;13153;52.316;21.166;2023-07-24T02:12:36;21.20;99.90
25208;DHT22;13153;52.316;21.166;2023-07-24T02:15:02;21.10;99.90
25208;DHT22;13153;52.316;21.166;2023-07-24T02:17:28;21.20;99.90
25208;DHT22;13153;52.316;21.166;2023-07-24T02:19:53;21.20;99.90
25208;DHT22;13153;52.316;21.166;2023-07-24T02:22:19;21.20;99.90
25208;DHT22;13153;52.316;21.166;2023-07-24T02:24:45;21.30;99.90
25208;DHT22;13153;52.316;21.166;2023-07-24T02:27:13;21.30;99.90
25208;DHT22;13153;52.316;21.166;2023-07-24T02:29:49;21.30;99.90
25208;DHT22;13153;52.316;21.166;2023-07-24T02:32:15;21.40;99.90
25208;DHT22;13153;52.316;21.166;2023-07-24T02:34:40;21.40;99.90
25208;DHT22;13153;52.316;21.166;2023-07-24T02:37:06;21.40;99.90
25208;DHT22;13153;52.316;21.166;2023-07-24T02:39:32;21.50;99.90
25208;DHT22;13153;52.316;21.166;2023-07-24T02:41:57;21.50;99.90
25208;DHT22;13153;52.316;21.166;2023-07-24T02:44:23;21.50;99.90
25208;DHT22;13153;52.316;21.166;2023-07-24T02:46:49;21.50;99.90
25208;DHT22;13153;52.316;21.166;2023-07-24T02:49:15;21.50;99.90
25208;DHT22;13153;52.316;21.166;2023-07-24T02:51:40;21.50;99.90
25208;DHT22;13153;52.316;21.166;2023-07-24T02:54:06;21.50;99.90
25208;DHT22;13153;52.316;21.166;2023-07-24T02:56:32;21.50;99.90
25208;DHT22;13153;52.316;21.166;2023-07-24T02:58:57;21.50;99.90
25208;DHT22;13153;52.316;21.166;2023-07-24T03:01:23;21.50;99.90
25208;DHT22;13153;52.316;21.166;2023-07-24T03:03:49;21.50;99.90
25208;DHT22;13153;52.316;21.166;2023-07-24T03:06:15;21.50;99.90
25208;DHT22;13153;52.316;21.166;2023-07-24T03:08:41;21.60;99.90
25208;DHT22;13153;52.316;21.166;2023-07-24T03:11:07;21.70;99.90
25208;DHT22;13153;52.316;21.166;2023-07-24T03:13:33;21.80;99.90
25208;DHT22;13153;52.316;21.166;2023-07-24T03:15:59;22.00;99.90
25208;DHT22;13153;52.316;21.166;2023-07-24T03:18:25;22.10;99.90
25208;DHT22;13153;52.316;21.166;2023-07-24T03:20:50;22.20;99.90
25208;DHT22;13153;52.316;21.166;2023-07-24T03:23:16;22.30;99.90
25208;DHT22;13153;52.316;21.166;2023-07-24T03:25:42;22.30;99.90
25208;DHT22;13153;52.316;21.166;2023-07-24T03:28:08;22.30;99.90
25208;DHT22;13153;52.316;21.166;2023-07-24T03:30:34;22.40;99.90
25208;DHT22;13153;52.316;21.166;2023-07-24T03:33:01;22.60;99.90
25208;DHT22;13153;52.316;21.166;2023-07-24T03:35:27;22.70;99.90
25208;DHT22;13153;52.316;21.166;2023-07-24T03:37:53;22.70;99.90
25208;DHT22;13153;52.316;21.166;2023-07-24T03:40:18;22.70;99.90
25208;DHT22;13153;52.316;21.166;2023-07-24T03:42:44;22.60;99.90
25208;DHT22;13153;52.316;21.166;2023-07-24T03:45:10;22.60;99.90
25208;DHT22;13153;52.316;21.166;2023-07-24T03:47:36;22.60;99.90
25208;DHT22;13153;52.316;21.166;2023-07-24T03:50:01;22.60;99.90
25208;DHT22;13153;52.316;21.166;2023-07-24T03:52:27;22.60;99.90
25208;DHT22;13153;52.316;21.166;2023-07-24T03:54:53;22.70;99.90
25208;DHT22;13153;52.316;21.166;2023-07-24T03:57:19;22.70;99.90
25208;DHT22;13153;52.316;21.166;2023-07-24T03:59:44;22.80;99.90
25208;DHT22;13153;52.316;21.166;2023-07-24T04:02:10;22.80;99.90
25208;DHT22;13153;52.316;21.166;2023-07-24T04:04:37;22.90;99.90
25208;DHT22;13153;52.316;21.166;2023-07-24T04:07:04;23.00;99.90
25208;DHT22;13153;52.316;21.166;2023-07-24T04:09:30;23.10;99.90
25208;DHT22;13153;52.316;21.166;2023-07-24T04:11:56;23.30;99.90
25208;DHT22;13153;52.316;21.166;2023-07-24T04:14:21;23.40;99.90
25208;DHT22;13153;52.316;21.166;2023-07-24T04:16:47;23.60;99.90
25208;DHT22;13153;52.316;21.166;2023-07-24T04:19:13;23.60;99.90
25208;DHT22;13153;52.316;21.166;2023-07-24T04:21:39;23.60;99.90
25208;DHT22;13153;52.316;21.166;2023-07-24T04:24:05;23.60;99.90
25208;DHT22;13153;52.316;21.166;2023-07-24T04:26:31;23.50;99.90
25208;DHT22;13153;52.316;21.166;2023-07-24T04:28:56;23.50;99.90
25208;DHT22;13153;52.316;21.166;2023-07-24T04:31:22;23.50;99.90
25208;DHT22;13153;52.316;21.166;2023-07-24T04:33:48;23.70;99.90
25208;DHT22;13153;52.316;21.166;2023-07-24T04:36:14;23.90;99.90
25208;DHT22;13153;52.316;21.166;2023-07-24T04:38:39;24.20;99.90
25208;DHT22;13153;52.316;21.166;2023-07-24T04:41:05;24.40;99.90
25208;DHT22;13153;52.316;21.166;2023-07-24T04:43:31;24.60;99.90
25208;DHT22;13153;52.316;21.166;2023-07-24T04:45:57;24.90;99.90
25208;DHT22;13153;52.316;21.166;2023-07-24T04:48:22;25.10;99.90
25208;DHT22;13153;52.316;21.166;2023-07-24T04:50:55;25.30;99.90
25208;DHT22;13153;52.316;21.166;2023-07-24T04:53:22;25.40;99.90
25208;DHT22;13153;52.316;21.166;2023-07-24T04:55:48;25.40;99.90
25208;DHT22;13153;52.316;21.166;2023-07-24T04:58:14;25.20;99.90
25208;DHT22;13153;52.316;21.166;2023-07-24T05:00:40;25.10;99.90
25208;DHT22;13153;52.316;21.166;2023-07-24T05:03:06;25.00;99.90
25208;DHT22;13153;52.316;21.166;2023-07-24T05:05:37;25.00;99.90
25208;DHT22;13153;52.316;21.166;2023-07-24T05:08:03;25.50;99.90
25208;DHT22;13153;52.316;21.166;2023-07-24T05:10:29;26.00;99.90
25208;DHT22;13153;52.316;21.166;2023-07-24T05:13:00;26.20;99.30
25208;DHT22;13153;52.316;21.166;2023-07-24T05:15:26;26.30;99.00
25208;DHT22;13153;52.316;21.166;2023-07-24T05:17:52;26.60;98.70
25208;DHT22;13153;52.316;21.166;2023-07-24T05:20:18;27.50;97.90
25208;DHT22;13153;52.316;21.166;2023-07-24T05:22:44;28.30;95.90
25208;DHT22;13153;52.316;21.166;2023-07-24T05:25:10;28.30;94.60
25208;DHT22;13153;52.316;21.166;2023-07-24T05:27:35;27.90;94.60
25208;DHT22;13153;52.316;21.166;2023-07-24T05:30:01;27.30;94.20
25208;DHT22;13153;52.316;21.166;2023-07-24T05:32:27;26.80;94.60
25208;DHT22;13153;52.316;21.166;2023-07-24T05:34:53;26.20;95.60
25208;DHT22;13153;52.316;21.166;2023-07-24T05:37:19;25.70;96.20
25208;DHT22;13153;52.316;21.166;2023-07-24T05:39:44;25.20;97.00
25208;DHT22;13153;52.316;21.166;2023-07-24T05:42:10;24.90;98.10
25208;DHT22;13153;52.316;21.166;2023-07-24T05:44:36;24.50;98.90
25208;DHT22;13153;52.316;21.166;2023-07-24T05:47:03;24.30;99.30
25208;DHT22;13153;52.316;21.166;2023-07-24T05:49:29;24.10;99.40
25208;DHT22;13153;52.316;21.166;2023-07-24T05:51:54;23.90;99.90
25208;DHT22;13153;52.316;21.166;2023-07-24T05:54:22;23.80;99.90
25208;DHT22;13153;52.316;21.166;2023-07-24T05:56:48;23.70;99.90
25208;DHT22;13153;52.316;21.166;2023-07-24T05:59:14;23.60;99.90
25208;DHT22;13153;52.316;21.166;2023-07-24T06:01:40;23.50;99.90
25208;DHT22;13153;52.316;21.166;2023-07-24T06:04:06;23.40;99.90
25208;DHT22;13153;52.316;21.166;2023-07-24T06:06:33;23.40;99.90
25208;DHT22;13153;52.316;21.166;2023-07-24T06:08:59;23.30;99.90
25208;DHT22;13153;52.316;21.166;2023-07-24T06:11:24;23.30;99.90
25208;DHT22;13153;52.316;21.166;2023-07-24T06:13:52;23.30;99.90
25208;DHT22;13153;52.316;21.166;2023-07-24T06:16:18;23.30;99.90
25208;DHT22;13153;52.316;21.166;2023-07-24T06:18:44;23.30;99.90
25208;DHT22;13153;52.316;21.166;2023-07-24T06:21:10;23.40;99.90
25208;DHT22;13153;52.316;21.166;2023-07-24T06:23:36;23.40;99.90
25208;DHT22;13153;52.316;21.166;2023-07-24T06:26:02;23.40;99.90
25208;DHT22;13153;52.316;21.166;2023-07-24T06:28:27;23.40;99.90
25208;DHT22;13153;52.316;21.166;2023-07-24T06:30:54;23.30;99.90
25208;DHT22;13153;52.316;21.166;2023-07-24T06:33:20;23.20;99.90
25208;DHT22;13153;52.316;21.166;2023-07-24T06:35:48;23.20;99.90
25208;DHT22;13153;52.316;21.166;2023-07-24T06:38:16;23.20;99.90
25208;DHT22;13153;52.316;21.166;2023-07-24T06:40:42;23.20;99.90
25208;DHT22;13153;52.316;21.166;2023-07-24T06:43:07;23.20;99.90
25208;DHT22;13153;52.316;21.166;2023-07-24T06:45:33;23.20;99.90
25208;DHT22;13153;52.316;21.166;2023-07-24T06:47:59;23.20;99.90
25208;DHT22;13153;52.316;21.166;2023-07-24T06:50:25;23.20;99.90
25208;DHT22;13153;52.316;21.166;2023-07-24T06:52:51;23.30;99.90
25208;DHT22;13153;52.316;21.166;2023-07-24T06:55:19;23.30;99.90
25208;DHT22;13153;52.316;21.166;2023-07-24T06:57:45;23.30;99.90
25208;DHT22;13153;52.316;21.166;2023-07-24T07:00:11;23.30;99.90
25208;DHT22;13153;52.316;21.166;2023-07-24T07:02:38;23.30;99.90
25208;DHT22;13153;52.316;21.166;2023-07-24T07:05:04;23.40;99.90
25208;DHT22;13153;52.316;21.166;2023-07-24T07:07:31;23.40;99.90
25208;DHT22;13153;52.316;21.166;2023-07-24T07:09:57;23.40;99.90
25208;DHT22;13153;52.316;21.166;2023-07-24T07:12:22;23.40;99.90
25208;DHT22;13153;52.316;21.166;2023-07-24T07:14:48;23.50;99.90
25208;DHT22;13153;52.316;21.166;2023-07-24T07:17:14;23.50;99.90
25208;DHT22;13153;52.316;21.166;2023-07-24T07:19:40;23.70;99.90
25208;DHT22;13153;52.316;21.166;2023-07-24T07:22:06;23.90;99.90
25208;DHT22;13153;52.316;21.166;2023-07-24T07:24:31;24.10;99.90
25208;DHT22;13153;52.316;21.166;2023-07-24T07:26:57;24.90;99.90
25208;DHT22;13153;52.316;21.166;2023-07-24T07:29:23;25.80;99.90
25208;DHT22;13153;52.316;21.166;2023-07-24T07:31:49;26.50;99.90
25208;DHT22;13153;52.316;21.166;2023-07-24T07:34:14;27.00;99.40
25208;DHT22;13153;52.316;21.166;2023-07-24T07:36:40;27.10;98.50
25208;DHT22;13153;52.316;21.166;2023-07-24T07:39:06;27.20;98.10
25208;DHT22;13153;52.316;21.166;2023-07-24T07:41:32;27.20;98.00
25208;DHT22;13153;52.316;21.166;2023-07-24T07:43:58;27.20;98.00
25208;DHT22;13153;52.316;21.166;2023-07-24T07:46:23;27.20;98.10
25208;DHT22;13153;52.316;21.166;2023-07-24T07:48:49;27.30;98.20
25208;DHT22;13153;52.316;21.166;2023-07-24T07:51:15;27.30;96.70
25208;DHT22;13153;52.316;21.166;2023-07-24T07:53:41;27.20;96.30
25208;DHT22;13153;52.316;21.166;2023-07-24T07:56:06;27.20;96.40
25208;DHT22;13153;52.316;21.166;2023-07-24T07:58:33;27.10;96.50
25208;DHT22;13153;52.316;21.166;2023-07-24T08:01:04;27.00;96.50
25208;DHT22;13153;52.316;21.166;2023-07-24T08:03:30;26.80;95.70
25208;DHT22;13153;52.316;21.166;2023-07-24T08:05:59;26.60;96.10
25208;DHT22;13153;52.316;21.166;2023-07-24T08:08:25;26.40;96.80
25208;DHT22;13153;52.316;21.166;2023-07-24T08:10:51;26.30;96.80
25208;DHT22;13153;52.316;21.166;2023-07-24T08:13:17;26.10;97.10
25208;DHT22;13153;52.316;21.166;2023-07-24T08:15:42;26.10;97.80
25208;DHT22;13153;52.316;21.166;2023-07-24T08:18:08;26.10;98.00
25208;DHT22;13153;52.316;21.166;2023-07-24T08:20:38;26.20;97.90
25208;DHT22;13153;52.316;21.166;2023-07-24T08:23:06;26.30;98.10
25208;DHT22;13153;52.316;21.166;2023-07-24T08:25:31;26.50;97.90
25208;DHT22;13153;52.316;21.166;2023-07-24T08:27:57;26.60;97.00
25208;DHT22;13153;52.316;21.166;2023-07-24T08:30:23;26.70;96.40
25208;DHT22;13153;52.316;21.166;2023-07-24T08:32:49;26.60;96.50
25208;DHT22;13153;52.316;21.166;2023-07-24T08:35:16;26.40;96.90
25208;DHT22;13153;52.316;21.166;2023-07-24T08:37:45;26.30;97.20
25208;DHT22;13153;52.316;21.166;2023-07-24T08:40:11;26.20;97.60
25208;DHT22;13153;52.316;21.166;2023-07-24T08:42:44;26.20;97.60
25208;DHT22;13153;52.316;21.166;2023-07-24T08:45:13;26.10;98.00
25208;DHT22;13153;52.316;21.166;2023-07-24T08:47:44;26.10;97.60
25208;DHT22;13153;52.316;21.166;2023-07-24T08:50:10;26.10;97.30
25208;DHT22;13153;52.316;21.166;2023-07-24T08:52:38;26.20;97.10
25208;DHT22;13153;52.316;21.166;2023-07-24T08:55:05;26.30;96.60
25208;DHT22;13153;52.316;21.166;2023-07-24T08:57:31;26.40;96.30
25208;DHT22;13153;52.316;21.166;2023-07-24T08:59:57;26.60;95.80
25208;DHT22;13153;52.316;21.166;2023-07-24T09:02:24;26.90;96.10
25208;DHT22;13153;52.316;21.166;2023-07-24T09:04:49;27.10;94.80
25208;DHT22;13153;52.316;21.166;2023-07-24T09:07:15;27.20;95.30
25208;DHT22;13153;52.316;21.166;2023-07-24T09:09:41;27.50;95.20
25208;DHT22;13153;52.316;21.166;2023-07-24T09:12:07;27.60;95.00
25208;DHT22;13153;52.316;21.166;2023-07-24T09:14:33;27.80;94.90
25208;DHT22;13153;52.316;21.166;2023-07-24T09:19:29;27.90;94.60
25208;DHT22;13153;52.316;21.166;2023-07-24T09:21:55;27.90;93.50
25208;DHT22;13153;52.316;21.166;2023-07-24T09:24:21;27.80;92.90
25208;DHT22;13153;52.316;21.166;2023-07-24T09:26:51;27.80;93.40
25208;DHT22;13153;52.316;21.166;2023-07-24T09:29:18;27.70;93.70
25208;DHT22;13153;52.316;21.166;2023-07-24T09:31:45;27.90;93.90
25208;DHT22;13153;52.316;21.166;2023-07-24T09:34:18;28.00;93.40
25208;DHT22;13153;52.316;21.166;2023-07-24T09:36:44;28.20;93.10
25208;DHT22;13153;52.316;21.166;2023-07-24T09:39:11;28.40;93.00
25208;DHT22;13153;52.316;21.166;2023-07-24T09:41:40;28.60;92.70
25208;DHT22;13153;52.316;21.166;2023-07-24T09:44:07;28.90;92.90
25208;DHT22;13153;52.316;21.166;2023-07-24T09:46:33;29.00;92.40
25208;DHT22;13153;52.316;21.166;2023-07-24T09:48:59;29.00;91.80
25208;DHT22;13153;52.316;21.166;2023-07-24T09:51:25;28.90;91.00
25208;DHT22;13153;52.316;21.166;2023-07-24T09:57:00;28.60;89.80
25208;DHT22;13153;52.316;21.166;2023-07-24T09:59:27;28.50;90.50
25208;DHT22;13153;52.316;21.166;2023-07-24T10:01:55;28.40;90.30
25208;DHT22;13153;52.316;21.166;2023-07-24T10:04:22;28.30;90.20
25208;DHT22;13153;52.316;21.166;2023-07-24T10:06:50;28.30;89.70
25208;DHT22;13153;52.316;21.166;2023-07-24T10:09:17;28.20;90.10
25208;DHT22;13153;52.316;21.166;2023-07-24T10:11:46;28.30;90.60
25208;DHT22;13153;52.316;21.166;2023-07-24T10:14:12;28.40;91.30
25208;DHT22;13153;52.316;21.166;2023-07-24T10:16:38;28.50;91.30
25208;DHT22;13153;52.316;21.166;2023-07-24T10:19:15;28.60;91.60
25208;DHT22;13153;52.316;21.166;2023-07-24T10:21:46;28.70;91.50
25208;DHT22;13153;52.316;21.166;2023-07-24T10:24:13;28.80;90.10
25208;DHT22;13153;52.316;21.166;2023-07-24T10:26:40;28.80;88.80
25208;DHT22;13153;52.316;21.166;2023-07-24T10:29:06;28.90;90.40
25208;DHT22;13153;52.316;21.166;2023-07-24T10:31:32;28.80;87.90
25208;DHT22;13153;52.316;21.166;2023-07-24T10:34:17;28.70;88.80
25208;DHT22;13153;52.316;21.166;2023-07-24T10:36:43;28.70;89.20
25208;DHT22;13153;52.316;21.166;2023-07-24T10:39:16;28.70;87.30
25208;DHT22;13153;52.316;21.166;2023-07-24T10:41:46;28.70;87.40
25208;DHT22;13153;52.316;21.166;2023-07-24T10:44:12;28.60;85.40
25208;DHT22;13153;52.316;21.166;2023-07-24T10:46:42;28.50;85.70
25208;DHT22;13153;52.316;21.166;2023-07-24T10:49:08;28.40;86.20
25208;DHT22;13153;52.316;21.166;2023-07-24T10:51:35;28.30;85.40
25208;DHT22;13153;52.316;21.166;2023-07-24T10:54:04;28.20;86.50
25208;DHT22;13153;52.316;21.166;2023-07-24T10:56:30;28.10;86.20
25208;DHT22;13153;52.316;21.166;2023-07-24T10:58:56;27.90;85.60
25208;DHT22;13153;52.316;21.166;2023-07-24T11:01:27;27.90;87.10
25208;DHT22;13153;52.316;21.166;2023-07-24T11:03:54;27.90;88.10
25208;DHT22;13153;52.316;21.166;2023-07-24T11:06:20;27.90;90.10
25208;DHT22;13153;52.316;21.166;2023-07-24T11:08:55;27.70;87.80
25208;DHT22;13153;52.316;21.166;2023-07-24T11:11:37;27.70;87.20
25208;DHT22;13153;52.316;21.166;2023-07-24T11:14:03;27.60;87.20
25208;DHT22;13153;52.316;21.166;2023-07-24T11:16:30;27.70;87.30
25208;DHT22;13153;52.316;21.166;2023-07-24T11:18:57;27.60;86.90
25208;DHT22;13153;52.316;21.166;2023-07-24T11:21:23;27.60;87.10
25208;DHT22;13153;52.316;21.166;2023-07-24T11:23:54;27.70;88.10
25208;DHT22;13153;52.316;21.166;2023-07-24T11:26:22;27.70;88.50
25208;DHT22;13153;52.316;21.166;2023-07-24T11:28:50;27.80;89.00
25208;DHT22;13153;52.316;21.166;2023-07-24T11:31:17;27.80;86.60
25208;DHT22;13153;52.316;21.166;2023-07-24T11:33:46;27.80;87.50
25208;DHT22;13153;52.316;21.166;2023-07-24T11:36:14;27.80;88.70
25208;DHT22;13153;52.316;21.166;2023-07-24T11:38:40;27.70;85.70
25208;DHT22;13153;52.316;21.166;2023-07-24T11:41:08;27.60;84.60
25208;DHT22;13153;52.316;21.166;2023-07-24T11:43:34;27.40;84.80
25208;DHT22;13153;52.316;21.166;2023-07-24T11:46:00;27.40;85.40
25208;DHT22;13153;52.316;21.166;2023-07-24T11:48:26;27.40;87.40
25208;DHT22;13153;52.316;21.166;2023-07-24T11:50:53;27.50;86.20
25208;DHT22;13153;52.316;21.166;2023-07-24T11:53:22;27.60;87.00
25208;DHT22;13153;52.316;21.166;2023-07-24T11:55:49;27.70;87.70
25208;DHT22;13153;52.316;21.166;2023-07-24T11:58:16;27.70;85.00
25208;DHT22;13153;52.316;21.166;2023-07-24T12:00:43;27.80;84.30
25208;DHT22;13153;52.316;21.166;2023-07-24T12:03:11;27.90;84.30
25208;DHT22;13153;52.316;21.166;2023-07-24T12:05:41;28.00;84.30
25208;DHT22;13153;52.316;21.166;2023-07-24T12:08:08;28.00;84.60
25208;DHT22;13153;52.316;21.166;2023-07-24T12:10:37;28.10;83.20
25208;DHT22;13153;52.316;21.166;2023-07-24T12:13:03;28.10;84.10
25208;DHT22;13153;52.316;21.166;2023-07-24T12:15:30;28.20;86.50
25208;DHT22;13153;52.316;21.166;2023-07-24T12:17:56;28.20;83.10
25208;DHT22;13153;52.316;21.166;2023-07-24T12:20:23;28.20;83.20
25208;DHT22;13153;52.316;21.166;2023-07-24T12:22:49;28.20;84.90
25208;DHT22;13153;52.316;21.166;2023-07-24T12:25:15;28.20;85.70
25208;DHT22;13153;52.316;21.166;2023-07-24T12:27:41;28.40;86.00
25208;DHT22;13153;52.316;21.166;2023-07-24T12:30:08;28.30;83.90
25208;DHT22;13153;52.316;21.166;2023-07-24T12:32:34;28.40;83.10
25208;DHT22;13153;52.316;21.166;2023-07-24T12:35:00;28.30;83.50
25208;DHT22;13153;52.316;21.166;2023-07-24T12:37:26;28.30;83.10
25208;DHT22;13153;52.316;21.166;2023-07-24T12:39:52;28.10;83.00
25208;DHT22;13153;52.316;21.166;2023-07-24T12:42:18;28.10;83.40
25208;DHT22;13153;52.316;21.166;2023-07-24T12:44:44;28.00;83.80
25208;DHT22;13153;52.316;21.166;2023-07-24T12:47:11;28.10;83.10
25208;DHT22;13153;52.316;21.166;2023-07-24T12:49:37;28.00;82.40
25208;DHT22;13153;52.316;21.166;2023-07-24T12:52:03;28.00;83.10
25208;DHT22;13153;52.316;21.166;2023-07-24T12:54:31;28.00;83.70
25208;DHT22;13153;52.316;21.166;2023-07-24T12:56:57;28.00;84.30
25208;DHT22;13153;52.316;21.166;2023-07-24T12:59:22;28.10;84.00
25208;DHT22;13153;52.316;21.166;2023-07-24T13:01:48;28.20;85.40
25208;DHT22;13153;52.316;21.166;2023-07-24T13:04:14;28.20;85.00
25208;DHT22;13153;52.316;21.166;2023-07-24T13:06:40;28.30;83.90
25208;DHT22;13153;52.316;21.166;2023-07-24T13:09:07;28.30;83.20
25208;DHT22;13153;52.316;21.166;2023-07-24T13:11:33;28.30;84.10
25208;DHT22;13153;52.316;21.166;2023-07-24T13:13:58;28.20;82.90
25208;DHT22;13153;52.316;21.166;2023-07-24T13:16:24;28.20;82.50
25208;DHT22;13153;52.316;21.166;2023-07-24T13:18:50;28.20;81.90
25208;DHT22;13153;52.316;21.166;2023-07-24T13:21:16;28.20;82.00
25208;DHT22;13153;52.316;21.166;2023-07-24T13:23:42;28.20;82.50
25208;DHT22;13153;52.316;21.166;2023-07-24T13:26:08;28.10;81.80
25208;DHT22;13153;52.316;21.166;2023-07-24T13:28:36;28.10;82.50
25208;DHT22;13153;52.316;21.166;2023-07-24T13:31:19;28.10;83.60
25208;DHT22;13153;52.316;21.166;2023-07-24T13:33:46;28.10;83.00
25208;DHT22;13153;52.316;21.166;2023-07-24T13:36:12;28.30;82.60
25208;DHT22;13153;52.316;21.166;2023-07-24T13:38:38;28.30;81.80
25208;DHT22;13153;52.316;21.166;2023-07-24T13:41:05;28.40;81.10
25208;DHT22;13153;52.316;21.166;2023-07-24T13:43:33;28.40;81.20
25208;DHT22;13153;52.316;21.166;2023-07-24T13:45:59;28.40;81.40
25208;DHT22;13153;52.316;21.166;2023-07-24T13:48:27;28.50;80.70
25208;DHT22;13153;52.316;21.166;2023-07-24T13:50:53;28.50;82.10
25208;DHT22;13153;52.316;21.166;2023-07-24T13:53:19;28.60;81.20
25208;DHT22;13153;52.316;21.166;2023-07-24T13:55:44;28.70;82.80
25208;DHT22;13153;52.316;21.166;2023-07-24T13:58:10;28.60;80.20
25208;DHT22;13153;52.316;21.166;2023-07-24T14:00:36;28.70;80.10
25208;DHT22;13153;52.316;21.166;2023-07-24T14:03:02;28.70;81.40
25208;DHT22;13153;52.316;21.166;2023-07-24T14:05:27;28.70;80.10
25208;DHT22;13153;52.316;21.166;2023-07-24T14:07:54;28.70;79.00
25208;DHT22;13153;52.316;21.166;2023-07-24T14:10:19;28.60;78.70
25208;DHT22;13153;52.316;21.166;2023-07-24T14:12:45;28.60;78.40
25208;DHT22;13153;52.316;21.166;2023-07-24T14:15:12;28.60;79.10
25208;DHT22;13153;52.316;21.166;2023-07-24T14:17:37;28.60;80.10
25208;DHT22;13153;52.316;21.166;2023-07-24T14:20:03;28.50;80.80
25208;DHT22;13153;52.316;21.166;2023-07-24T14:22:30;28.50;80.90
25208;DHT22;13153;52.316;21.166;2023-07-24T14:24:56;28.50;80.30
25208;DHT22;13153;52.316;21.166;2023-07-24T14:27:22;28.40;79.30
25208;DHT22;13153;52.316;21.166;2023-07-24T14:29:47;28.40;79.80
25208;DHT22;13153;52.316;21.166;2023-07-24T14:32:13;28.30;81.00
25208;DHT22;13153;52.316;21.166;2023-07-24T14:34:41;28.40;81.10
25208;DHT22;13153;52.316;21.166;2023-07-24T14:37:07;28.40;79.90
25208;DHT22;13153;52.316;21.166;2023-07-24T14:39:32;28.30;79.70
25208;DHT22;13153;52.316;21.166;2023-07-24T14:41:59;28.40;80.50
25208;DHT22;13153;52.316;21.166;2023-07-24T14:44:25;28.40;80.50
25208;DHT22;13153;52.316;21.166;2023-07-24T14:46:51;28.40;80.50
25208;DHT22;13153;52.316;21.166;2023-07-24T14:49:17;28.40;80.10
25208;DHT22;13153;52.316;21.166;2023-07-24T14:51:43;28.40;79.60
25208;DHT22;13153;52.316;21.166;2023-07-24T14:54:08;28.40;80.10
25208;DHT22;13153;52.316;21.166;2023-07-24T14:56:34;28.50;81.30
25208;DHT22;13153;52.316;21.166;2023-07-24T14:59:00;28.50;79.50
25208;DHT22;13153;52.316;21.166;2023-07-24T15:01:26;28.50;78.60
25208;DHT22;13153;52.316;21.166;2023-07-24T15:03:54;28.60;79.00
25208;DHT22;13153;52.316;21.166;2023-07-24T15:06:22;28.50;76.40
25208;DHT22;13153;52.316;21.166;2023-07-24T15:08:49;28.50;76.50
25208;DHT22;13153;52.316;21.166;2023-07-24T15:11:19;28.50;77.10
25208;DHT22;13153;52.316;21.166;2023-07-24T15:13:45;28.50;77.30
25208;DHT22;13153;52.316;21.166;2023-07-24T15:16:11;28.50;75.90
25208;DHT22;13153;52.316;21.166;2023-07-24T15:18:36;28.50;76.50
25208;DHT22;13153;52.316;21.166;2023-07-24T15:21:02;28.50;76.90